KCCA/CCA METAR and TAF weather

Enter ICAO airport designator
Station Type Date Time Source
KCCA METAR 2022/05/26 05:55 UTC NOAA

KCCA 260555Z AUTO 00000KT 10SM SCT021 SCT029 BKN060 15/14 A2981 RMK AO2 P0009


Station Type Date Time Source
KCCA Decoded METAR 2022/05/26 05:55 UTC NOAA

Station name not available
May 26, 2022 - 01:55 AM EDT / 2022.05.26 0555 UTC
Wind: Calm:0
Visibility: 10 mile(s):0
Sky conditions: mostly cloudy
Precipitation last hour: 0.09 inches
Temperature: 59 F (15 C)
Dew Point: 57 F (14 C)
Relative Humidity: 93%
Pressure (altimeter): 29.81 in. Hg (1009 hPa)
ob: KCCA 260555Z AUTO 00000KT 10SM SCT021 SCT029 BKN060 15/14 A2981 RMK AO2 P0009
cycle: 6

Station Type Date Time Source
KCCA TAF UTC NOAA

Error!

Example: see airport list